메인 페이지
METAR-TAF:

METAR-TAF

공항 :

바레인 국제공항

바레인, 바레인

위도: 26-16N, 경도: 050-39E, 고도: 2m

현재 날씨관측

예보는 20분 전, 04:30시(UTC)에 발표되었습니다.
동남동8kt
온도 31°C
습도 55%
기압 1016 hPa
시정 10km 이상
1500m 미만 상공 구름 및 적란운 없음

METAR: OBBI 220430Z 12008KT CAVOK 31/21 Q1016 NOSIG

시각: 07:50 (04:50 UTC)

예보

예보는 5 시간 50분 전, 23:00시(UTC)에 발표되었습니다.
예보 대상 시간: 22일 00시부터 23일 06시까지 (UTC)
8kt
시정: 8000m
확률 30% :
일시적
22일 06시부터 22일 15시까지 (UTC)
북북서17kt, 순간 최대 풍속 27kt
시정: 4000m
고도 3000ft 상공 구름 보통, 적란운.
고도 10000ft 상공 구름 많음
뇌우, 비

TAF: OBBI 212300Z 2200/2306 10008KT 8000 NSC PROB30 TEMPO 2206/2215 34017G27KT 4000 TSRA SCT030CB BKN100

4,000개 이상의 공항 관측 자료 및 예보 (METAR 및 TAF 보고).

지도상에서 검색 가능한 기상관측소가 노란 점과 빨간 점으로 표시되어 있습니다.

기상관측소 명을 보려면 표시 위로 마우스를 이동하세요.

날씨 관측과 예보를 보려면 클릭하세요.

지도 변경 : 확대하려면 엑스 표시가 있는 녹색 버튼, 축소하려면 빼기 표시가 있는 녹색 버튼, 다음 페이지의 지도를 보려면 녹색 화살표를 클릭하세요.


METAR-TAF: